Terminal Aerodrome Forecast
Issued by NWS

Home | Current Version | Previous Version | Graphics & Text | Print | Product List | Glossary On
Versions: 1 2 3 4 5 6 7 8 9 10 11 12 13 14 15 16 17 18
000
FTUS43 KGRB 242300
TAFATW
TAF
KATW 242321Z 2500/2524 25006KT 6SM BR BKN050 BKN090
     FM250130 04009G15KT 6SM -SN SCT020 OVC040
      TEMPO 2502/2505 4SM -SHSN BKN020
     FM250500 03013G20KT P6SM -SN BKN018 OVC025
     FM251800 04012G19KT P6SM SCT022 SCT035
     FM252300 04011KT P6SM SKC=

USA.gov is the U.S. government's official web portal to all federal, state and local government web resources and services.